KDMN/DMN METAR and TAF weather

Enter ICAO airport designator
Station Type Date Time Source
KDMN METAR 2021/03/02 12:53 UTC NOAA

KDMN 021253Z AUTO 06006KT 10SM CLR M02/M07 A3026 RMK AO2 SLP234 T10221067


Station Type Date Time Source
KDMN Decoded METAR 2021/03/02 12:53 UTC NOAA

DEMING MUNICIPAL AIRPORT, NM, United States (KDMN) 32-16N 107-43W 1311M
Mar 02, 2021 - 07:53 AM EST / 2021.03.02 1253 UTC
Wind: from the ENE (060 degrees) at 7 MPH (6 KT):0
Visibility: 10 mile(s):0
Sky conditions: clear
Temperature: 28.0 F (-2.2 C)
Windchill: 21 F (-6 C):1
Dew Point: 19.9 F (-6.7 C)
Relative Humidity: 71%
Pressure (altimeter): 30.26 in. Hg (1024 hPa)
ob: KDMN 021253Z AUTO 06006KT 10SM CLR M02/M07 A3026 RMK AO2 SLP234 T10221067
cycle: 13

Station Type Date Time Source
KDMN TAF 2021/03/02 12:24 UTC NOAA

TAF KDMN 021122Z 0212/0312 07007KT P6SM SKC
FM021600 09013G20KT P6SM SKC
FM022100 10006KT P6SM SKC

Example: see airport list